PROFILE

 METAR AND TAF INFORMATION
ADDS - METARS form results

(1434 UTC 02 March 2021)
http://aviationweather.gov/metar/data/
 
LGKR 021420Z 24010KT 9999 FEW040 18/04 Q1028 NOSIG
LGKR 021350Z 23006KT 9999 FEW040 18/04 Q1028 NOSIG
TAF LGKR 021100Z 0212/0312 VRB05KT 9999 FEW035 TEMPO 0214/0222 32012KT 

 AIRPORT MAP

 RUNWAY INFORMATION
Runway 17 Runway length 7792 ft Runway width 148 ft
Runway elevation 5 ft Runway displaced threshold 1348 ft Runway heading 169
Runway 35 Runway length 7792 ft Runway width 148 ft
Runway elevation 5 ft Runway displaced threshold 213 ft Runway heading 349

 AIRPORT FREQUENCIES
Type A/G Name KERKIRA RD Frequency 563.7 MHZ
Type APP Name KERKIRA AP Frequency 118.075 MHZ
Type ATIS Name ATIS Frequency 126.35 MHZ
Type TWR Name KERKIRA TW Frequency 120.85 MHZ

 AIRPORT NEAR NAVIGATION AIDS
Type VOR-DME Name Garitsa Frequency 108800 KHZ
Type NDB Name Kerkira Frequency 403 KHZ
Type VOR-DME Name Kerkira Frequency 114700 KHZ